Time;durP1;ratioP1;P1;durP2;ratioP2;P2;SDS_P1;SDS_P2;PMS_P1;PMS_P2;Temp;Humidity;BMP_temperature;BMP_pressure;BME280_temperature;BME280_humidity;BME280_pressure;Samples;Min_cycle;Max_cycle;Signal;HPM_P1;HPM_P2
2023/03/08 00:01:12;;;;;;;1.38;0.90;;;15.30;65.70;;;;;;3927274;30;20063;-69
2023/03/08 00:03:56;;;;;;;1.23;0.65;;;15.30;65.40;;;;;;3913138;30;20174;-69
2023/03/08 00:06:37;;;;;;;3.83;0.70;;;15.40;65.30;;;;;;3913367;30;20071;-68
2023/03/08 00:09:18;;;;;;;1.65;0.70;;;15.30;65.20;;;;;;3913109;30;20091;-68
2023/03/08 00:11:59;;;;;;;0.55;0.55;;;15.30;65.10;;;;;;3926924;30;20141;-68
2023/03/08 00:14:40;;;;;;;1.25;0.93;;;15.30;66.00;;;;;;3921231;30;20531;-69
2023/03/08 00:17:23;;;;;;;0.57;0.50;;;15.20;65.40;;;;;;3927509;30;20858;-68
2023/03/08 00:20:07;;;;;;;2.70;0.90;;;15.20;65.60;;;;;;3927818;30;20054;-69
2023/03/08 00:22:48;;;;;;;0.55;0.50;;;15.20;65.60;;;;;;3902040;30;20130;-68
2023/03/08 00:25:28;;;;;;;0.75;0.52;;;15.30;65.70;;;;;;3913099;30;20062;-68
2023/03/08 00:28:09;;;;;;;0.75;0.75;;;15.30;66.50;;;;;;3912796;30;20624;-69
2023/03/08 00:30:56;;;;;;;2.72;0.65;;;15.40;65.30;;;;;;3906850;30;20883;-68
2023/03/08 00:33:37;;;;;;;1.38;0.60;;;15.40;64.80;;;;;;3927369;30;20063;-69
2023/03/08 00:36:20;;;;;;;0.70;0.55;;;15.50;64.80;;;;;;3927450;30;20404;-69
2023/03/08 00:39:01;;;;;;;0.60;0.60;;;15.50;64.50;;;;;;3916513;30;20516;-69
2023/03/08 00:41:43;;;;;;;1.15;0.50;;;15.40;64.60;;;;;;3915444;30;20071;-68
2023/03/08 00:44:24;;;;;;;1.38;0.50;;;15.40;64.80;;;;;;3916268;30;20711;-68
2023/03/08 00:47:05;;;;;;;1.60;0.90;;;15.30;64.90;;;;;;3927309;30;20189;-69
2023/03/08 00:49:46;;;;;;;1.27;1.17;;;15.30;65.20;;;;;;3915901;30;20109;-69
2023/03/08 00:52:28;;;;;;;0.70;0.70;;;15.30;65.20;;;;;;3912805;30;20094;-69
2023/03/08 00:55:10;;;;;;;1.08;0.73;;;15.40;64.90;;;;;;3901812;30;20064;-70
2023/03/08 00:57:51;;;;;;;2.22;0.77;;;15.50;64.50;;;;;;3901473;30;20234;-69
2023/03/08 01:00:32;;;;;;;0.70;0.60;;;15.60;64.20;;;;;;3918090;30;20512;-69
2023/03/08 01:03:14;;;;;;;1.20;0.60;;;15.70;64.00;;;;;;3922361;30;20062;-69
2023/03/08 01:05:57;;;;;;;0.90;0.70;;;15.70;63.60;;;;;;3926496;30;20055;-70
2023/03/08 01:08:40;;;;;;;0.90;0.90;;;15.80;63.60;;;;;;3927130;30;20058;-69
2023/03/08 01:11:23;;;;;;;0.93;0.75;;;15.80;63.40;;;;;;3926947;30;20058;-69
2023/03/08 01:14:07;;;;;;;1.38;0.60;;;15.80;63.30;;;;;;3915533;30;20065;-69
2023/03/08 01:16:49;;;;;;;1.40;0.70;;;15.80;63.90;;;;;;3915178;30;20190;-69
2023/03/08 01:19:30;;;;;;;2.63;0.68;;;15.80;63.30;;;;;;3926644;30;20059;-69
2023/03/08 01:22:11;;;;;;;1.33;0.80;;;15.80;63.00;;;;;;3906391;30;20104;-68
2023/03/08 01:25:11;;;;;;;2.33;0.98;;;15.80;62.90;;;;;;3912079;30;20964;-69
2023/03/08 01:27:58;;;;;;;2.08;0.68;;;15.80;63.00;;;;;;3896483;30;20161;-69
2023/03/08 01:31:04;;;;;;;1.48;0.90;;;15.70;63.10;;;;;;3909363;30;20408;-69
2023/03/08 01:33:47;;;;;;;1.45;0.60;;;15.70;63.30;;;;;;3915519;30;20068;-68
2023/03/08 01:36:53;;;;;;;1.58;0.68;;;15.70;63.30;;;;;;3926716;30;20109;-69
2023/03/08 01:39:33;;;;;;;1.25;0.80;;;15.80;63.30;;;;;;3925831;30;20121;-68
2023/03/08 01:42:16;;;;;;;0.95;0.85;;;15.80;63.30;;;;;;3915406;30;20055;-69
2023/03/08 01:44:58;;;;;;;1.55;0.50;;;15.80;63.10;;;;;;3926655;30;20163;-69
2023/03/08 01:47:41;;;;;;;2.30;0.70;;;15.90;62.80;;;;;;3915477;30;20058;-69
2023/03/08 01:50:30;;;;;;;1.80;0.60;;;16.00;62.60;;;;;;3915302;30;20408;-69
2023/03/08 01:53:11;;;;;;;2.00;0.88;;;16.00;62.60;;;;;;3915438;30;20109;-69
2023/03/08 01:55:52;;;;;;;1.08;0.70;;;16.10;62.40;;;;;;3915389;30;20194;-70
2023/03/08 01:58:35;;;;;;;1.38;0.63;;;16.10;62.20;;;;;;3901011;30;20101;-70
2023/03/08 02:01:17;;;;;;;2.00;0.75;;;16.10;61.90;;;;;;3914826;30;20066;-70
2023/03/08 02:04:00;;;;;;;1.10;0.55;;;16.10;61.90;;;;;;3915303;30;20071;-70
2023/03/08 02:06:42;;;;;;;2.80;0.93;;;16.10;61.90;;;;;;3905314;30;20067;-70
2023/03/08 02:09:24;;;;;;;0.90;0.50;;;16.00;61.90;;;;;;3915184;30;20067;-70
2023/03/08 02:12:11;;;;;;;1.33;0.68;;;15.90;62.00;;;;;;3911068;30;20425;-70
2023/03/08 02:14:54;;;;;;;1.25;0.88;;;15.90;62.20;;;;;;3911627;30;20168;-70
2023/03/08 02:17:38;;;;;;;2.17;0.57;;;15.80;62.60;;;;;;3900635;30;20093;-70
2023/03/08 02:20:24;;;;;;;1.48;0.60;;;15.80;62.60;;;;;;3915876;30;20067;-70
2023/03/08 02:23:11;;;;;;;1.10;1.10;;;15.80;63.50;;;;;;3926074;30;20099;-70
2023/03/08 02:25:56;;;;;;;1.23;0.60;;;15.80;62.40;;;;;;3914903;30;20070;-69
2023/03/08 02:28:38;;;;;;;0.70;0.70;;;15.80;62.60;;;;;;3904625;30;20061;-69
2023/03/08 02:31:19;;;;;;;1.30;0.60;;;15.90;62.60;;;;;;3914930;30;20562;-69
2023/03/08 02:34:00;;;;;;;0.88;0.75;;;16.00;62.30;;;;;;3915098;30;20077;-70
2023/03/08 02:36:41;;;;;;;1.48;0.50;;;16.00;62.10;;;;;;3915366;30;20063;-69
2023/03/08 02:39:23;;;;;;;2.38;0.80;;;16.00;62.00;;;;;;3925917;30;20059;-70
2023/03/08 02:42:04;;;;;;;1.55;0.82;;;16.00;62.00;;;;;;3926236;30;20392;-70
2023/03/08 02:44:45;;;;;;;0.73;0.50;;;16.00;61.90;;;;;;3904883;30;20117;-70
2023/03/08 02:47:25;;;;;;;0.85;0.63;;;16.00;61.90;;;;;;3925699;30;20059;-71
2023/03/08 02:50:08;;;;;;;1.85;0.82;;;15.90;62.20;;;;;;3900872;30;20841;-69
2023/03/08 02:52:49;;;;;;;1.08;0.50;;;15.90;62.40;;;;;;3895110;30;20163;-69
2023/03/08 02:55:34;;;;;;;1.40;0.93;;;15.90;63.30;;;;;;3911574;30;20059;-69
2023/03/08 02:58:19;;;;;;;1.13;0.75;;;15.90;62.20;;;;;;3906308;30;20313;-69
2023/03/08 03:01:00;;;;;;;2.00;0.57;;;16.00;62.40;;;;;;3914493;30;20094;-69
2023/03/08 03:03:41;;;;;;;2.17;0.53;;;16.00;62.30;;;;;;3926312;30;20129;-69
2023/03/08 03:06:22;;;;;;;1.23;0.55;;;16.00;62.30;;;;;;3917984;30;20055;-69
2023/03/08 03:09:07;;;;;;;1.48;0.60;;;15.90;62.30;;;;;;3917655;30;20417;-69
2023/03/08 03:11:50;;;;;;;1.52;0.60;;;15.90;62.40;;;;;;3917800;30;20858;-69
2023/03/08 03:14:31;;;;;;;2.65;0.65;;;15.80;62.50;;;;;;3917561;30;20052;-69
2023/03/08 03:17:13;;;;;;;1.17;0.70;;;15.80;62.60;;;;;;3917640;30;20496;-70
2023/03/08 03:19:53;;;;;;;1.85;0.60;;;15.80;62.60;;;;;;3902780;30;20135;-68
2023/03/08 03:22:34;;;;;;;2.47;0.67;;;15.70;62.60;;;;;;3913156;30;20113;-68
2023/03/08 03:25:17;;;;;;;1.77;0.60;;;15.70;62.70;;;;;;3898615;30;20142;-68
2023/03/08 03:28:00;;;;;;;1.15;0.70;;;15.80;62.70;;;;;;3891136;30;20086;-68
2023/03/08 03:30:42;;;;;;;1.23;0.60;;;15.80;62.70;;;;;;3902716;30;20079;-68
2023/03/08 03:33:25;;;;;;;1.63;0.68;;;15.80;62.60;;;;;;3888463;30;20186;-68
2023/03/08 03:36:06;;;;;;;1.05;0.50;;;15.70;62.50;;;;;;3888447;30;20406;-69
2023/03/08 03:38:49;;;;;;;1.45;0.40;;;15.80;62.60;;;;;;3896585;30;20063;-68
2023/03/08 03:41:30;;;;;;;1.88;0.68;;;15.90;62.40;;;;;;3902783;30;20462;-68
2023/03/08 03:44:20;;;;;;;3.15;0.65;;;15.90;62.20;;;;;;3902527;30;20225;-69
2023/03/08 03:47:01;;;;;;;1.27;0.57;;;15.90;61.90;;;;;;3898627;30;20128;-69
2023/03/08 03:49:42;;;;;;;0.85;0.65;;;15.90;61.70;;;;;;3877880;30;20184;-70
2023/03/08 03:52:24;;;;;;;0.93;0.80;;;15.90;61.70;;;;;;3887838;30;20378;-69
2023/03/08 03:55:11;;;;;;;1.80;0.80;;;15.90;61.90;;;;;;3888283;30;20195;-69
2023/03/08 03:57:52;;;;;;;4.82;1.13;;;15.90;61.80;;;;;;3879388;30;20402;-69
2023/03/08 04:00:36;;;;;;;1.60;0.63;;;15.90;61.70;;;;;;3895366;30;20059;-69
2023/03/08 04:03:33;;;;;;;3.03;0.60;;;15.90;61.60;;;;;;3891982;30;20117;-69
2023/03/08 04:06:16;;;;;;;3.90;0.80;;;15.90;61.70;;;;;;3888002;30;20195;-68
2023/03/08 04:08:58;;;;;;;0.82;0.60;;;15.90;61.80;;;;;;3896672;30;20084;-69
2023/03/08 04:11:42;;;;;;;1.55;0.63;;;15.90;62.00;;;;;;3891984;30;20048;-68
2023/03/08 04:14:28;;;;;;;1.80;0.80;;;15.90;61.90;;;;;;3902192;30;20070;-69
2023/03/08 04:17:10;;;;;;;2.47;0.60;;;15.90;61.70;;;;;;3901677;30;20063;-69
2023/03/08 04:20:05;;;;;;;2.10;0.70;;;15.90;62.50;;;;;;3887464;30;20060;-70
2023/03/08 04:22:50;;;;;;;3.10;0.77;;;15.90;61.80;;;;;;3897718;30;20068;-69
2023/03/08 04:25:39;;;;;;;1.75;0.60;;;15.90;61.80;;;;;;3887659;30;20055;-69
2023/03/08 04:28:23;;;;;;;1.98;0.77;;;15.80;61.80;;;;;;3887711;30;20060;-70
2023/03/08 04:31:12;;;;;;;1.90;0.60;;;15.80;61.70;;;;;;3877718;30;20056;-69
2023/03/08 04:33:57;;;;;;;1.55;0.77;;;15.80;61.80;;;;;;3887607;30;20071;-70
2023/03/08 04:36:39;;;;;;;2.33;0.98;;;15.80;62.00;;;;;;3892801;30;20059;-69
2023/03/08 04:39:21;;;;;;;1.35;0.77;;;15.80;62.10;;;;;;3887440;30;20064;-69
2023/03/08 04:42:02;;;;;;;2.20;0.77;;;15.80;61.80;;;;;;3896699;30;20118;-69
2023/03/08 04:44:44;;;;;;;0.88;0.50;;;15.90;61.90;;;;;;3891811;30;20194;-69
2023/03/08 04:47:28;;;;;;;1.42;0.47;;;15.90;61.80;;;;;;3901342;30;20056;-70
2023/03/08 04:50:11;;;;;;;0.70;0.60;;;15.90;61.50;;;;;;3901982;30;20059;-69
2023/03/08 04:52:53;;;;;;;1.58;0.60;;;15.90;61.30;;;;;;3896981;30;20106;-69
2023/03/08 04:55:36;;;;;;;1.55;0.60;;;15.90;62.30;;;;;;3901139;30;20066;-69
2023/03/08 04:58:18;;;;;;;1.50;0.70;;;15.90;61.30;;;;;;3887246;30;20154;-69
2023/03/08 05:00:59;;;;;;;0.50;0.50;;;15.90;61.30;;;;;;3887414;30;20422;-69
2023/03/08 05:03:41;;;;;;;0.60;0.50;;;15.80;62.20;;;;;;3898386;30;20191;-69
2023/03/08 05:06:26;;;;;;;1.20;0.60;;;15.80;61.60;;;;;;3890135;30;20532;-67
2023/03/08 05:09:09;;;;;;;0.63;0.63;;;15.80;61.60;;;;;;3901180;30;20070;-68
2023/03/08 05:11:52;;;;;;;0.80;0.50;;;15.90;61.50;;;;;;3900967;30;20060;-68
2023/03/08 05:14:34;;;;;;;1.55;0.60;;;15.80;61.40;;;;;;3894023;30;20070;-67
2023/03/08 05:17:15;;;;;;;1.63;0.65;;;15.80;61.60;;;;;;3912286;30;20060;-66
2023/03/08 05:19:57;;;;;;;2.25;0.80;;;15.80;61.50;;;;;;3901371;30;20126;-66
2023/03/08 05:22:46;;;;;;;0.98;0.65;;;15.90;61.50;;;;;;3895069;30;20060;-67
2023/03/08 05:25:43;;;;;;;1.10;0.60;;;15.90;61.40;;;;;;3900690;30;20149;-68
2023/03/08 05:28:27;;;;;;;0.60;0.60;;;15.90;61.20;;;;;;3900461;30;20087;-67
2023/03/08 05:31:11;;;;;;;0.95;0.70;;;15.90;61.90;;;;;;3912003;30;20074;-68
2023/03/08 05:33:52;;;;;;;2.55;1.10;;;15.90;61.00;;;;;;3900544;30;20060;-68
2023/03/08 05:36:44;;;;;;;0.80;0.80;;;15.90;61.00;;;;;;3911249;30;20583;-68
2023/03/08 05:39:27;;;;;;;3.25;0.73;;;15.90;61.00;;;;;;3900697;30;20056;-67
2023/03/08 05:42:22;;;;;;;1.45;0.82;;;15.90;61.10;;;;;;3900773;30;20064;-68
2023/03/08 05:45:03;;;;;;;2.92;0.80;;;15.90;61.10;;;;;;3898533;30;20199;-66
2023/03/08 05:47:48;;;;;;;1.83;1.00;;;16.00;60.90;;;;;;3895262;30;20067;-67
2023/03/08 05:50:29;;;;;;;0.50;0.50;;;15.90;60.90;;;;;;3900659;30;20385;-67
2023/03/08 05:53:11;;;;;;;2.38;0.80;;;15.90;61.10;;;;;;3900574;30;20064;-67
2023/03/08 05:55:55;;;;;;;3.50;0.80;;;15.90;61.00;;;;;;3890892;30;20107;-68
2023/03/08 05:58:37;;;;;;;2.03;1.42;;;15.90;61.00;;;;;;3900876;30;20118;-68
2023/03/08 06:01:20;;;;;;;2.47;0.75;;;15.90;61.00;;;;;;3886387;30;20199;-68
2023/03/08 06:04:02;;;;;;;1.30;0.77;;;15.80;61.00;;;;;;3896385;30;20063;-68
2023/03/08 06:06:46;;;;;;;0.80;0.80;;;15.90;61.10;;;;;;3900153;30;20051;-68
2023/03/08 06:09:27;;;;;;;1.92;0.70;;;15.90;61.90;;;;;;3911544;30;20603;-67
2023/03/08 06:12:10;;;;;;;0.88;0.88;;;16.00;60.80;;;;;;3900613;30;20056;-68
2023/03/08 06:14:50;;;;;;;1.35;1.02;;;16.00;60.70;;;;;;3897180;30;20056;-67
2023/03/08 06:17:33;;;;;;;1.80;1.02;;;16.00;61.50;;;;;;3897061;30;20092;-68
2023/03/08 06:20:15;;;;;;;1.05;1.02;;;16.00;60.70;;;;;;3885933;30;20060;-68
2023/03/08 06:22:59;;;;;;;2.42;1.20;;;16.00;60.60;;;;;;3891267;30;20087;-69
2023/03/08 06:25:43;;;;;;;2.28;1.33;;;16.00;60.50;;;;;;3890709;30;20433;-68
2023/03/08 06:28:28;;;;;;;1.25;1.25;;;16.00;60.40;;;;;;3900617;30;20100;-68
2023/03/08 06:31:13;;;;;;;2.50;1.40;;;16.00;60.50;;;;;;3900273;30;20063;-65
2023/03/08 06:33:54;;;;;;;2.40;1.52;;;16.00;61.10;;;;;;3911141;30;20071;-68
2023/03/08 06:36:38;;;;;;;1.05;1.05;;;16.10;60.70;;;;;;3885964;30;20053;-68
2023/03/08 06:39:19;;;;;;;2.47;1.90;;;16.10;60.20;;;;;;3898947;30;20068;-63
2023/03/08 06:42:01;;;;;;;2.67;1.52;;;16.20;59.80;;;;;;3903471;30;20071;-66
2023/03/08 06:44:44;;;;;;;2.40;1.95;;;16.10;59.60;;;;;;3881247;30;20191;-65
2023/03/08 06:47:27;;;;;;;2.20;2.00;;;16.10;59.60;;;;;;3902404;30;20063;-76
2023/03/08 06:50:10;;;;;;;2.42;2.15;;;16.00;60.50;;;;;;3913065;30;20119;-75
2023/03/08 06:52:54;;;;;;;2.97;2.30;;;16.00;59.50;;;;;;3888605;30;20690;-71
2023/03/08 06:55:46;;;;;;;2.38;2.17;;;15.90;59.60;;;;;;3902921;30;20060;-67
2023/03/08 06:58:27;;;;;;;3.40;2.22;;;15.90;61.00;;;;;;3913997;30;20059;-68
2023/03/08 07:01:10;;;;;;;2.10;2.00;;;15.90;60.10;;;;;;3914117;30;20060;-69
2023/03/08 07:03:52;;;;;;;3.45;2.42;;;15.90;61.00;;;;;;3914086;30;20504;-68
2023/03/08 07:06:32;;;;;;;;;;;15.90;60.00;;;;;;3914522;30;20064;-68
2023/03/08 07:09:13;;;;;;;4.38;3.20;;;15.90;60.30;;;;;;3913735;30;19937;-68
2023/03/08 07:11:54;;;;;;;3.08;2.88;;;15.90;60.60;;;;;;3913985;30;20536;-68
2023/03/08 07:14:35;;;;;;;2.83;2.63;;;15.90;60.10;;;;;;3914072;30;20056;-68
2023/03/08 07:17:18;;;;;;;3.65;2.55;;;16.00;59.90;;;;;;3909946;30;20052;-68
2023/03/08 07:19:59;;;;;;;2.60;2.50;;;15.90;59.60;;;;;;3895186;30;20056;-68
2023/03/08 07:22:42;;;;;;;2.88;2.63;;;16.00;59.60;;;;;;3904947;30;20133;-68
2023/03/08 07:25:23;;;;;;;3.00;2.70;;;16.00;59.50;;;;;;3927149;30;20047;-69
2023/03/08 07:28:04;;;;;;;4.93;2.90;;;16.00;59.50;;;;;;3928353;30;20195;-69
2023/03/08 07:30:47;;;;;;;4.40;3.03;;;16.10;59.40;;;;;;3928276;30;20190;-69
2023/03/08 07:33:30;;;;;;;3.17;2.88;;;16.10;59.10;;;;;;3927930;30;20177;-69
2023/03/08 07:36:11;;;;;;;3.58;3.35;;;16.00;59.20;;;;;;3896419;30;20417;-69
2023/03/08 07:38:52;;;;;;;3.85;3.13;;;16.00;59.40;;;;;;3899458;30;20055;-69
2023/03/08 07:41:33;;;;;;;4.40;3.25;;;16.00;59.70;;;;;;3899165;30;20122;-68
2023/03/08 07:44:14;;;;;;;5.28;3.40;;;16.10;59.80;;;;;;3898851;30;20064;-68
2023/03/08 07:46:55;;;;;;;4.03;3.13;;;16.10;59.70;;;;;;3899151;30;20057;-68
2023/03/08 07:49:38;;;;;;;3.47;2.67;;;16.10;59.80;;;;;;3911873;30;20294;-68
2023/03/08 07:52:18;;;;;;;3.60;3.28;;;16.10;60.10;;;;;;3908987;30;20559;-68
2023/03/08 07:55:01;;;;;;;2.75;2.55;;;16.10;60.10;;;;;;3898422;30;20762;-68
2023/03/08 07:57:41;;;;;;;3.17;2.97;;;16.20;59.80;;;;;;3909338;30;20540;-68
2023/03/08 08:00:22;;;;;;;2.97;2.78;;;16.30;59.80;;;;;;3905828;30;20055;-68
2023/03/08 08:03:04;;;;;;;3.47;3.17;;;16.30;59.80;;;;;;3912911;30;20071;-68
2023/03/08 08:05:46;;;;;;;6.78;3.47;;;16.30;59.60;;;;;;3905497;30;20472;-68
2023/03/08 08:08:26;;;;;;;5.50;3.58;;;16.30;59.60;;;;;;3892145;30;20695;-67
2023/03/08 08:11:11;;;;;;;3.83;3.20;;;16.30;59.80;;;;;;3903236;30;20105;-68
2023/03/08 08:13:52;;;;;;;3.20;2.88;;;16.20;59.80;;;;;;3898708;30;20068;-67
2023/03/08 08:16:34;;;;;;;3.65;3.10;;;16.10;60.10;;;;;;3906782;30;20117;-68
2023/03/08 08:19:16;;;;;;;5.55;3.20;;;16.00;60.40;;;;;;3912143;30;20059;-69
2023/03/08 08:21:58;;;;;;;4.13;3.25;;;16.00;60.70;;;;;;3920938;30;20071;-68
2023/03/08 08:24:38;;;;;;;3.72;2.95;;;16.10;60.70;;;;;;3913615;30;20512;-68
2023/03/08 08:27:20;;;;;;;3.22;2.90;;;16.10;60.70;;;;;;3902206;30;20113;-68
2023/03/08 08:30:00;;;;;;;3.72;3.42;;;16.10;60.50;;;;;;3912680;30;20056;-65
2023/03/08 08:32:41;;;;;;;3.38;3.10;;;16.00;61.50;;;;;;3912316;30;20171;-68
2023/03/08 08:35:22;;;;;;;4.70;2.90;;;16.00;60.90;;;;;;3923982;30;20054;-68
2023/03/08 08:38:15;;;;;;;3.80;2.65;;;16.00;61.10;;;;;;3916088;30;20063;-68
2023/03/08 08:40:59;;;;;;;5.63;3.30;;;15.90;61.10;;;;;;3927252;30;20067;-68
2023/03/08 08:43:40;;;;;;;3.85;3.08;;;16.00;61.10;;;;;;3927216;30;20515;-68
2023/03/08 08:46:21;;;;;;;3.95;3.65;;;16.00;61.00;;;;;;3918805;30;20063;-68
2023/03/08 08:49:04;;;;;;;3.15;2.90;;;15.90;61.00;;;;;;3912565;30;20063;-68
2023/03/08 08:51:44;;;;;;;3.08;2.75;;;15.90;61.10;;;;;;3926664;30;20055;-67
2023/03/08 08:54:27;;;;;;;3.50;3.20;;;15.80;61.10;;;;;;3926769;30;20050;-67
2023/03/08 08:57:08;;;;;;;2.90;2.75;;;15.80;61.50;;;;;;3926988;30;20121;-68
2023/03/08 08:59:49;;;;;;;3.10;2.90;;;15.80;61.50;;;;;;3927068;30;20063;-68
2023/03/08 09:02:30;;;;;;;5.45;2.80;;;15.90;61.30;;;;;;3926744;30;20196;-68
2023/03/08 09:05:10;;;;;;;3.42;3.13;;;15.90;61.30;;;;;;3915593;30;20066;-68
2023/03/08 09:07:53;;;;;;;2.70;2.45;;;15.90;61.70;;;;;;3927222;30;20467;-68
2023/03/08 09:10:38;;;;;;;3.00;2.40;;;15.90;61.40;;;;;;3927030;30;20055;-68
2023/03/08 09:13:19;;;;;;;2.47;2.13;;;15.90;61.20;;;;;;3926497;30;20101;-68
2023/03/08 09:16:00;;;;;;;2.88;2.65;;;15.80;61.20;;;;;;3908124;30;20170;-69
2023/03/08 09:18:42;;;;;;;2.92;2.67;;;15.80;61.10;;;;;;3912269;30;20378;-69
2023/03/08 09:21:23;;;;;;;2.35;2.22;;;15.80;61.00;;;;;;3926717;30;20054;-68
2023/03/08 09:24:08;;;;;;;3.38;2.95;;;15.80;61.20;;;;;;3921415;30;20075;-68
2023/03/08 09:26:50;;;;;;;2.95;2.67;;;15.80;61.40;;;;;;3926621;30;20416;-68
2023/03/08 09:29:31;;;;;;;3.30;3.00;;;15.80;61.80;;;;;;3915705;30;20125;-67
2023/03/08 09:32:12;;;;;;;3.67;2.53;;;15.90;61.60;;;;;;3926220;30;20121;-68
2023/03/08 09:34:54;;;;;;;3.70;2.90;;;15.80;61.50;;;;;;3926478;30;20059;-68
2023/03/08 09:37:35;;;;;;;5.43;3.28;;;15.80;61.50;;;;;;3924641;30;20071;-69
2023/03/08 09:40:21;;;;;;;3.83;3.10;;;15.80;61.80;;;;;;3915113;30;20059;-68
2023/03/08 09:43:07;;;;;;;3.90;2.92;;;15.80;61.80;;;;;;3921898;30;20471;-68
2023/03/08 09:45:52;;;;;;;3.28;2.97;;;15.80;61.80;;;;;;3915705;30;20059;-68
2023/03/08 09:48:34;;;;;;;3.03;2.72;;;15.70;62.00;;;;;;3912971;30;20071;-68
2023/03/08 09:51:18;;;;;;;3.13;2.92;;;15.70;62.10;;;;;;3925882;30;20492;-68
2023/03/08 09:54:05;;;;;;;4.00;2.97;;;15.80;62.00;;;;;;3923886;30;20066;-68
2023/03/08 09:56:48;;;;;;;3.22;2.85;;;15.80;61.50;;;;;;3918794;30;20062;-68
2023/03/08 09:59:39;;;;;;;25.08;4.65;;;15.70;61.70;;;;;;3922171;30;20089;-68
2023/03/08 10:02:28;;;;;;;20.02;5.72;;;15.70;62.00;;;;;;3925680;30;20134;-68
2023/03/08 10:05:17;;;;;;;33.20;5.43;;;15.70;63.40;;;;;;3926380;30;20198;-68
2023/03/08 10:08:02;;;;;;;5.20;2.83;;;15.60;63.30;;;;;;3926431;30;20077;-68
2023/03/08 10:10:51;;;;;;;4.05;2.70;;;15.50;62.70;;;;;;3914471;30;20067;-68
2023/03/08 10:13:34;;;;;;;4.20;3.30;;;15.50;64.00;;;;;;3926001;30;20158;-68
2023/03/08 10:16:21;;;;;;;2.83;2.20;;;15.50;64.20;;;;;;3929003;30;20198;-68
2023/03/08 10:19:13;;;;;;;4.22;2.40;;;15.60;64.30;;;;;;3904002;30;20060;-68
2023/03/08 10:21:56;;;;;;;3.42;2.08;;;15.50;64.80;;;;;;3921051;30;20071;-69
2023/03/08 10:24:42;;;;;;;2.65;1.77;;;15.60;65.30;;;;;;3920151;30;20067;-67
2023/03/08 10:27:26;;;;;;;3.90;2.28;;;15.60;64.60;;;;;;3929350;30;20063;-68
2023/03/08 10:30:15;;;;;;;2.53;2.30;;;15.60;64.80;;;;;;3928576;30;20405;-69
2023/03/08 10:32:59;;;;;;;2.08;1.90;;;15.60;64.90;;;;;;3914252;30;20059;-68
2023/03/08 10:35:54;;;;;;;4.72;2.30;;;15.60;65.30;;;;;;3903027;30;20064;-69
2023/03/08 10:38:37;;;;;;;3.10;2.35;;;15.70;65.00;;;;;;3917438;30;20060;-71
2023/03/08 10:41:18;;;;;;;3.90;2.70;;;15.70;65.00;;;;;;3914214;30;20137;-76
2023/03/08 10:44:00;;;;;;;2.58;2.13;;;15.70;64.90;;;;;;3914718;30;20071;-73
2023/03/08 10:46:48;;;;;;;2.63;2.42;;;15.70;64.40;;;;;;3922516;30;20194;-71
2023/03/08 10:49:30;;;;;;;3.55;2.55;;;15.70;64.80;;;;;;3924850;30;20071;-71
2023/03/08 10:52:23;;;;;;;2.30;2.20;;;15.70;64.80;;;;;;3926936;30;20071;-71
2023/03/08 10:55:06;;;;;;;3.25;1.98;;;15.70;64.80;;;;;;3913755;30;20436;-72
2023/03/08 10:57:51;;;;;;;3.08;2.33;;;15.80;64.80;;;;;;3914334;30;20064;-71
2023/03/08 11:00:34;;;;;;;2.25;2.05;;;15.80;64.70;;;;;;3924295;30;20223;-63
2023/03/08 11:03:18;;;;;;;3.67;2.08;;;15.80;64.80;;;;;;3928767;30;20059;-66
2023/03/08 11:06:02;;;;;;;4.55;2.00;;;15.80;64.80;;;;;;3928326;30;20063;-66
2023/03/08 11:08:53;;;;;;;2.13;1.92;;;15.70;64.80;;;;;;3928336;30;20046;-66
2023/03/08 11:11:41;;;;;;;2.95;2.33;;;15.70;65.10;;;;;;3924782;30;20060;-66
2023/03/08 11:14:21;;;;;;;2.72;2.05;;;15.80;64.50;;;;;;3916198;30;20166;-66
2023/03/08 11:17:15;;;;;;;4.82;1.50;;;15.80;64.30;;;;;;3915618;30;20153;-66
2023/03/08 11:20:09;;;;;;;2.17;1.60;;;15.90;63.40;;;;;;3912108;30;20058;-66
2023/03/08 11:23:05;;;;;;;1.77;1.67;;;15.80;62.80;;;;;;3927712;30;20527;-66
2023/03/08 11:25:54;;;;;;;2.65;1.05;;;15.80;64.00;;;;;;3912550;30;20067;-64
2023/03/08 11:29:13;;;;;;;1.27;1.17;;;15.80;62.70;;;;;;3906093;30;20060;-65
2023/03/08 11:31:58;;;;;;;2.17;1.40;;;15.70;62.50;;;;;;3901030;30;20071;-66
2023/03/08 11:34:48;;;;;;;1.52;1.42;;;15.60;62.50;;;;;;3912391;30;20065;-66
2023/03/08 11:37:35;;;;;;;2.03;1.55;;;15.50;62.50;;;;;;3913054;30;20059;-65
2023/03/08 11:40:24;;;;;;;2.03;1.00;;;15.40;63.40;;;;;;3913259;30;20071;-63
2023/03/08 11:43:19;;;;;;;3.40;1.17;;;15.40;64.30;;;;;;3898699;30;20640;-64
2023/03/08 11:46:06;;;;;;;1.27;0.82;;;15.40;65.30;;;;;;3901899;30;20083;-65
2023/03/08 11:49:12;;;;;;;2.88;0.98;;;15.50;66.10;;;;;;3902156;30;20067;-65
2023/03/08 11:52:00;;;;;;;1.38;1.00;;;15.60;64.40;;;;;;3906254;30;20052;-65
2023/03/08 11:54:52;;;;;;;1.95;1.55;;;15.60;64.20;;;;;;3898939;30;20406;-65
2023/03/08 11:57:40;;;;;;;1.30;0.95;;;15.60;64.00;;;;;;3898426;30;20060;-69
2023/03/08 12:00:26;;;;;;;0.98;0.90;;;15.50;64.10;;;;;;3898587;30;20063;-69
2023/03/08 12:03:14;;;;;;;3.67;1.08;;;15.50;64.40;;;;;;3898830;30;20060;-70
2023/03/08 12:05:58;;;;;;;1.17;1.05;;;15.50;64.60;;;;;;3888051;30;20191;-70
2023/03/08 12:08:44;;;;;;;1.00;1.00;;;15.60;64.80;;;;;;3898807;30;20060;-70
2023/03/08 12:11:29;;;;;;;1.77;0.90;;;15.70;64.30;;;;;;3899576;30;20060;-70
2023/03/08 12:14:16;;;;;;;2.97;1.38;;;15.70;64.10;;;;;;3895492;30;20237;-70
2023/03/08 12:17:05;;;;;;;3.17;1.20;;;15.70;63.50;;;;;;3898509;30;20150;-69
2023/03/08 12:19:48;;;;;;;4.35;1.65;;;15.70;63.20;;;;;;3898406;30;20528;-69
2023/03/08 12:22:44;;;;;;;38.00;4.43;;;15.70;63.20;;;;;;3898569;30;20080;-70
2023/03/08 12:25:30;;;;;;;1.00;1.00;;;15.70;63.10;;;;;;3910957;30;20134;-69
2023/03/08 12:28:19;;;;;;;2.75;1.30;;;15.70;61.70;;;;;;3912831;30;20390;-69
2023/03/08 12:31:19;;;;;;;2.60;1.38;;;15.80;62.10;;;;;;3914678;30;20079;-69
2023/03/08 12:34:13;;;;;;;3.30;1.30;;;15.70;61.20;;;;;;3927465;30;20116;-69
2023/03/08 12:36:54;;;;;;;1.52;1.30;;;15.70;61.90;;;;;;3916605;30;20105;-69
2023/03/08 12:39:36;;;;;;;4.80;1.88;;;15.70;62.00;;;;;;3927508;30;20109;-69
2023/03/08 12:42:30;;;;;;;4.90;1.40;;;15.60;62.50;;;;;;3905560;30;20056;-69
2023/03/08 12:45:29;;;;;;;10.02;2.17;;;15.60;62.70;;;;;;3912516;30;20063;-68
2023/03/08 12:48:20;;;;;;;7.40;1.85;;;15.70;63.10;;;;;;3912277;30;20513;-68
2023/03/08 12:51:05;;;;;;;2.58;1.17;;;15.70;62.90;;;;;;3914414;30;20064;-67
2023/03/08 12:53:56;;;;;;;2.15;1.35;;;15.80;62.50;;;;;;3921417;30;20070;-69
2023/03/08 12:56:38;;;;;;;1.83;1.23;;;15.80;63.00;;;;;;3927058;30;20405;-66
2023/03/08 12:59:31;;;;;;;8.75;1.58;;;15.80;61.40;;;;;;3915976;30;20051;-64
2023/03/08 13:02:29;;;;;;;2.85;1.60;;;15.80;61.00;;;;;;3914981;30;20059;-61
2023/03/08 13:05:20;;;;;;;1.48;0.80;;;15.80;60.30;;;;;;3912367;30;20397;-63
2023/03/08 13:08:20;;;;;;;;;;;15.80;60.50;;;;;;3912829;30;20203;-63
2023/03/08 13:11:05;;;;;;;2.65;1.27;;;15.80;61.20;;;;;;3903272;30;20433;-67
2023/03/08 13:13:52;;;;;;;2.65;1.17;;;15.70;61.10;;;;;;3926785;30;20113;-65
2023/03/08 13:16:35;;;;;;;1.20;1.10;;;15.70;60.90;;;;;;3926661;30;20066;-68
2023/03/08 13:19:21;;;;;;;2.75;1.05;;;15.80;59.60;;;;;;3923862;30;20074;-71
2023/03/08 13:22:14;;;;;;;1.10;1.00;;;15.80;58.10;;;;;;3926789;30;20145;-70
2023/03/08 13:24:58;;;;;;;7.35;1.50;;;15.70;57.00;;;;;;3921346;30;20071;-71
2023/03/08 13:27:48;;;;;;;1.83;1.10;;;15.70;58.80;;;;;;3917250;30;20150;-71
2023/03/08 13:30:34;;;;;;;2.08;1.08;;;15.70;59.30;;;;;;3912275;30;20063;-62
2023/03/08 13:33:19;;;;;;;7.28;1.88;;;15.60;57.20;;;;;;3910125;30;20195;-63
2023/03/08 13:36:02;;;;;;;1.45;1.15;;;15.60;58.50;;;;;;3912275;30;20775;-62
2023/03/08 13:38:53;;;;;;;1.88;0.90;;;15.50;59.10;;;;;;3918939;30;20055;-63
2023/03/08 13:41:36;;;;;;;3.15;1.15;;;15.50;58.70;;;;;;3904711;30;20090;-65
2023/03/08 13:44:19;;;;;;;1.17;1.02;;;15.50;57.80;;;;;;3912041;30;20555;-64
2023/03/08 13:47:03;;;;;;;1.50;1.33;;;15.50;56.90;;;;;;3912126;30;20133;-64
2023/03/08 13:49:45;;;;;;;2.53;1.42;;;15.50;57.40;;;;;;3912152;30;20083;-64
2023/03/08 13:52:29;;;;;;;1.55;1.17;;;15.40;58.10;;;;;;3912114;30;20118;-67
2023/03/08 13:55:20;;;;;;;1.50;1.40;;;15.40;58.60;;;;;;3911786;30;20083;-67
2023/03/08 13:58:02;;;;;;;1.98;1.50;;;15.30;59.10;;;;;;3912373;30;20063;-64
2023/03/08 14:00:43;;;;;;;1.85;1.60;;;15.30;60.00;;;;;;3911865;30;20464;-64
2023/03/08 14:03:24;;;;;;;4.30;1.40;;;15.40;60.60;;;;;;3911834;30;20051;-65
2023/03/08 14:06:14;;;;;;;5.07;1.55;;;15.50;60.80;;;;;;3911848;30;20079;-65
2023/03/08 14:08:58;;;;;;;3.75;1.70;;;15.60;60.60;;;;;;3911873;30;20090;-65
2023/03/08 14:11:41;;;;;;;1.52;1.00;;;15.70;60.50;;;;;;3911825;30;20064;-64
2023/03/08 14:14:28;;;;;;;1.75;1.40;;;15.70;59.90;;;;;;3911907;30;20055;-64
2023/03/08 14:17:19;;;;;;;4.68;1.50;;;15.80;59.80;;;;;;3911835;30;20064;-65